sensor_id;sensor_type;location;lat;lon;timestamp;P1;durP1;ratioP1;P2;durP2;ratioP2
25129;SDS011;13308;50.860;13.664;2023-08-30T05:19:32;8.25;;;5.43;;
25129;SDS011;13308;50.860;13.664;2023-08-30T05:21:58;6.53;;;5.88;;
25129;SDS011;13308;50.860;13.664;2023-08-30T05:24:24;6.55;;;5.90;;
25129;SDS011;13308;50.860;13.664;2023-08-30T05:26:52;5.82;;;5.25;;
25129;SDS011;13308;50.860;13.664;2023-08-30T05:29:17;6.55;;;5.90;;
25129;SDS011;13308;50.860;13.664;2023-08-30T05:31:43;6.85;;;5.72;;
25129;SDS011;13308;50.860;13.664;2023-08-30T05:34:25;7.63;;;5.82;;
25129;SDS011;13308;50.860;13.664;2023-08-30T05:37:06;5.93;;;5.32;;
25129;SDS011;13308;50.860;13.664;2023-08-30T05:39:56;6.72;;;6.10;;
25129;SDS011;13308;50.860;13.664;2023-08-30T05:42:22;6.28;;;5.47;;
25129;SDS011;13308;50.860;13.664;2023-08-30T05:44:47;5.25;;;4.75;;
25129;SDS011;13308;50.860;13.664;2023-08-30T05:47:13;6.50;;;5.90;;
25129;SDS011;13308;50.860;13.664;2023-08-30T05:49:40;7.28;;;6.47;;
25129;SDS011;13308;50.860;13.664;2023-08-30T05:52:06;6.57;;;5.93;;
25129;SDS011;13308;50.860;13.664;2023-08-30T05:54:31;6.75;;;6.00;;
25129;SDS011;13308;50.860;13.664;2023-08-30T05:56:58;10.82;;;5.85;;
25129;SDS011;13308;50.860;13.664;2023-08-30T05:59:24;7.78;;;6.30;;
25129;SDS011;13308;50.860;13.664;2023-08-30T06:01:50;5.85;;;5.30;;
25129;SDS011;13308;50.860;13.664;2023-08-30T06:04:15;6.07;;;4.97;;
25129;SDS011;13308;50.860;13.664;2023-08-30T06:06:40;8.88;;;7.05;;
25129;SDS011;13308;50.860;13.664;2023-08-30T06:09:06;5.95;;;5.13;;
25129;SDS011;13308;50.860;13.664;2023-08-30T06:11:32;10.82;;;8.20;;
25129;SDS011;13308;50.860;13.664;2023-08-30T06:13:58;8.65;;;7.80;;
25129;SDS011;13308;50.860;13.664;2023-08-30T06:16:24;10.90;;;8.13;;
25129;SDS011;13308;50.860;13.664;2023-08-30T06:18:50;12.57;;;10.23;;
25129;SDS011;13308;50.860;13.664;2023-08-30T06:21:15;20.08;;;13.02;;
25129;SDS011;13308;50.860;13.664;2023-08-30T06:23:41;20.08;;;12.43;;
25129;SDS011;13308;50.860;13.664;2023-08-30T06:26:06;18.27;;;13.43;;
25129;SDS011;13308;50.860;13.664;2023-08-30T06:28:32;27.77;;;18.13;;
25129;SDS011;13308;50.860;13.664;2023-08-30T06:30:57;23.17;;;15.35;;
25129;SDS011;13308;50.860;13.664;2023-08-30T06:33:22;20.48;;;13.80;;
25129;SDS011;13308;50.860;13.664;2023-08-30T06:35:48;26.13;;;15.88;;
25129;SDS011;13308;50.860;13.664;2023-08-30T06:38:15;28.52;;;16.70;;
25129;SDS011;13308;50.860;13.664;2023-08-30T06:40:44;24.13;;;16.42;;
25129;SDS011;13308;50.860;13.664;2023-08-30T06:43:10;24.35;;;16.65;;
25129;SDS011;13308;50.860;13.664;2023-08-30T06:45:36;24.58;;;16.02;;
25129;SDS011;13308;50.860;13.664;2023-08-30T06:48:03;24.45;;;16.58;;
25129;SDS011;13308;50.860;13.664;2023-08-30T06:50:29;23.33;;;15.88;;
25129;SDS011;13308;50.860;13.664;2023-08-30T06:52:54;23.65;;;15.93;;
25129;SDS011;13308;50.860;13.664;2023-08-30T06:55:19;22.85;;;15.32;;
25129;SDS011;13308;50.860;13.664;2023-08-30T06:57:47;24.65;;;16.98;;
25129;SDS011;13308;50.860;13.664;2023-08-30T07:00:13;27.17;;;17.52;;
25129;SDS011;13308;50.860;13.664;2023-08-30T07:02:39;22.17;;;15.98;;
25129;SDS011;13308;50.860;13.664;2023-08-30T07:05:05;23.77;;;16.05;;
25129;SDS011;13308;50.860;13.664;2023-08-30T07:07:31;22.60;;;15.43;;
25129;SDS011;13308;50.860;13.664;2023-08-30T07:09:57;22.02;;;16.10;;
25129;SDS011;13308;50.860;13.664;2023-08-30T07:12:22;21.70;;;15.25;;
25129;SDS011;13308;50.860;13.664;2023-08-30T07:14:48;21.17;;;15.50;;
25129;SDS011;13308;50.860;13.664;2023-08-30T07:17:13;20.05;;;15.48;;
25129;SDS011;13308;50.860;13.664;2023-08-30T07:19:39;18.65;;;15.00;;
25129;SDS011;13308;50.860;13.664;2023-08-30T07:22:04;20.40;;;14.95;;
25129;SDS011;13308;50.860;13.664;2023-08-30T07:24:29;18.35;;;13.48;;
25129;SDS011;13308;50.860;13.664;2023-08-30T07:26:55;17.92;;;13.85;;
25129;SDS011;13308;50.860;13.664;2023-08-30T07:29:20;19.70;;;14.65;;
25129;SDS011;13308;50.860;13.664;2023-08-30T07:31:46;16.70;;;13.18;;
25129;SDS011;13308;50.860;13.664;2023-08-30T07:34:12;15.10;;;12.57;;
25129;SDS011;13308;50.860;13.664;2023-08-30T07:36:37;12.85;;;11.35;;
25129;SDS011;13308;50.860;13.664;2023-08-30T07:39:03;11.32;;;10.18;;
25129;SDS011;13308;50.860;13.664;2023-08-30T07:41:28;11.18;;;9.95;;
25129;SDS011;13308;50.860;13.664;2023-08-30T07:43:54;11.50;;;10.30;;
25129;SDS011;13308;50.860;13.664;2023-08-30T07:46:19;10.48;;;9.38;;
25129;SDS011;13308;50.860;13.664;2023-08-30T07:48:44;10.98;;;9.88;;
25129;SDS011;13308;50.860;13.664;2023-08-30T07:51:10;13.90;;;10.00;;
25129;SDS011;13308;50.860;13.664;2023-08-30T07:53:35;14.48;;;9.77;;
25129;SDS011;13308;50.860;13.664;2023-08-30T07:56:00;9.98;;;9.02;;
25129;SDS011;13308;50.860;13.664;2023-08-30T07:58:25;8.90;;;8.10;;
25129;SDS011;13308;50.860;13.664;2023-08-30T08:00:54;9.40;;;8.40;;
25129;SDS011;13308;50.860;13.664;2023-08-30T08:03:20;8.77;;;7.90;;
25129;SDS011;13308;50.860;13.664;2023-08-30T08:05:46;8.68;;;7.82;;
25129;SDS011;13308;50.860;13.664;2023-08-30T08:08:12;8.70;;;7.90;;
25129;SDS011;13308;50.860;13.664;2023-08-30T08:10:37;8.65;;;7.80;;
25129;SDS011;13308;50.860;13.664;2023-08-30T08:13:03;8.40;;;7.60;;
25129;SDS011;13308;50.860;13.664;2023-08-30T08:15:31;8.43;;;7.63;;
25129;SDS011;13308;50.860;13.664;2023-08-30T08:17:57;9.80;;;8.07;;
25129;SDS011;13308;50.860;13.664;2023-08-30T08:20:23;8.18;;;7.40;;
25129;SDS011;13308;50.860;13.664;2023-08-30T08:22:48;7.80;;;7.13;;
25129;SDS011;13308;50.860;13.664;2023-08-30T08:25:14;8.48;;;7.68;;
25129;SDS011;13308;50.860;13.664;2023-08-30T08:27:39;9.95;;;7.40;;
25129;SDS011;13308;50.860;13.664;2023-08-30T08:30:05;8.07;;;7.28;;
25129;SDS011;13308;50.860;13.664;2023-08-30T08:32:31;7.50;;;6.90;;
25129;SDS011;13308;50.860;13.664;2023-08-30T08:34:57;8.00;;;7.20;;
25129;SDS011;13308;50.860;13.664;2023-08-30T08:37:22;7.78;;;7.07;;
25129;SDS011;13308;50.860;13.664;2023-08-30T08:39:48;8.10;;;7.40;;
25129;SDS011;13308;50.860;13.664;2023-08-30T08:42:17;6.07;;;5.57;;
25129;SDS011;13308;50.860;13.664;2023-08-30T08:44:43;6.90;;;6.20;;
25129;SDS011;13308;50.860;13.664;2023-08-30T08:47:11;6.47;;;5.95;;
25129;SDS011;13308;50.860;13.664;2023-08-30T08:49:36;6.57;;;5.97;;
25129;SDS011;13308;50.860;13.664;2023-08-30T08:52:03;6.13;;;5.63;;
25129;SDS011;13308;50.860;13.664;2023-08-30T08:54:29;7.10;;;5.50;;
25129;SDS011;13308;50.860;13.664;2023-08-30T08:56:55;7.03;;;6.28;;
25129;SDS011;13308;50.860;13.664;2023-08-30T08:59:21;6.82;;;6.22;;
25129;SDS011;13308;50.860;13.664;2023-08-30T09:01:46;6.25;;;4.82;;
25129;SDS011;13308;50.860;13.664;2023-08-30T09:04:12;6.68;;;6.07;;
25129;SDS011;13308;50.860;13.664;2023-08-30T09:06:38;6.43;;;5.82;;
25129;SDS011;13308;50.860;13.664;2023-08-30T09:09:08;6.78;;;6.28;;
25129;SDS011;13308;50.860;13.664;2023-08-30T09:11:34;5.85;;;5.35;;
25129;SDS011;13308;50.860;13.664;2023-08-30T09:13:59;5.60;;;5.18;;
25129;SDS011;13308;50.860;13.664;2023-08-30T09:16:25;5.50;;;5.05;;
25129;SDS011;13308;50.860;13.664;2023-08-30T09:18:57;5.43;;;4.93;;
25129;SDS011;13308;50.860;13.664;2023-08-30T09:21:29;6.55;;;5.88;;
25129;SDS011;13308;50.860;13.664;2023-08-30T09:23:59;5.97;;;5.40;;
25129;SDS011;13308;50.860;13.664;2023-08-30T09:26:31;4.03;;;3.67;;
25129;SDS011;13308;50.860;13.664;2023-08-30T09:29:01;4.72;;;4.32;;
25129;SDS011;13308;50.860;13.664;2023-08-30T09:31:32;4.82;;;4.43;;
25129;SDS011;13308;50.860;13.664;2023-08-30T09:34:02;4.53;;;3.97;;
25129;SDS011;13308;50.860;13.664;2023-08-30T09:36:34;8.23;;;4.15;;
25129;SDS011;13308;50.860;13.664;2023-08-30T09:39:05;5.10;;;3.63;;
25129;SDS011;13308;50.860;13.664;2023-08-30T09:41:37;3.05;;;2.85;;
25129;SDS011;13308;50.860;13.664;2023-08-30T09:44:10;3.13;;;2.92;;
25129;SDS011;13308;50.860;13.664;2023-08-30T09:49:21;3.10;;;2.90;;
25129;SDS011;13308;50.860;13.664;2023-08-30T09:51:50;2.85;;;2.65;;
25129;SDS011;13308;50.860;13.664;2023-08-30T09:54:26;3.00;;;2.70;;
25129;SDS011;13308;50.860;13.664;2023-08-30T09:56:53;3.58;;;3.28;;
25129;SDS011;13308;50.860;13.664;2023-08-30T09:59:21;3.38;;;3.08;;
25129;SDS011;13308;50.860;13.664;2023-08-30T10:01:47;2.78;;;2.55;;
25129;SDS011;13308;50.860;13.664;2023-08-30T10:04:19;3.40;;;3.10;;
25129;SDS011;13308;50.860;13.664;2023-08-30T10:06:45;3.03;;;2.80;;
25129;SDS011;13308;50.860;13.664;2023-08-30T10:09:12;3.33;;;3.03;;
25129;SDS011;13308;50.860;13.664;2023-08-30T10:11:39;6.15;;;2.55;;
25129;SDS011;13308;50.860;13.664;2023-08-30T10:14:07;2.58;;;2.38;;
25129;SDS011;13308;50.860;13.664;2023-08-30T10:16:46;3.08;;;2.80;;
25129;SDS011;13308;50.860;13.664;2023-08-30T10:19:16;2.47;;;2.28;;
25129;SDS011;13308;50.860;13.664;2023-08-30T10:21:45;3.50;;;3.05;;
25129;SDS011;13308;50.860;13.664;2023-08-30T10:24:14;3.15;;;2.45;;
25129;SDS011;13308;50.860;13.664;2023-08-30T10:26:41;4.10;;;2.15;;
25129;SDS011;13308;50.860;13.664;2023-08-30T10:29:09;3.00;;;1.90;;
25129;SDS011;13308;50.860;13.664;2023-08-30T10:31:37;5.00;;;2.30;;
25129;SDS011;13308;50.860;13.664;2023-08-30T10:34:11;2.90;;;2.13;;
25129;SDS011;13308;50.860;13.664;2023-08-30T10:36:38;1.85;;;1.75;;
25129;SDS011;13308;50.860;13.664;2023-08-30T10:39:10;2.95;;;2.40;;
25129;SDS011;13308;50.860;13.664;2023-08-30T10:41:55;3.90;;;2.53;;
25129;SDS011;13308;50.860;13.664;2023-08-30T10:44:24;2.40;;;2.20;;
25129;SDS011;13308;50.860;13.664;2023-08-30T10:46:52;5.25;;;2.00;;
25129;SDS011;13308;50.860;13.664;2023-08-30T10:49:19;2.15;;;1.80;;
25129;SDS011;13308;50.860;13.664;2023-08-30T10:51:44;2.92;;;2.70;;
25129;SDS011;13308;50.860;13.664;2023-08-30T10:54:14;3.10;;;2.80;;
25129;SDS011;13308;50.860;13.664;2023-08-30T10:56:56;2.72;;;2.53;;
25129;SDS011;13308;50.860;13.664;2023-08-30T10:59:24;3.22;;;2.67;;
25129;SDS011;13308;50.860;13.664;2023-08-30T11:01:50;2.83;;;2.63;;
25129;SDS011;13308;50.860;13.664;2023-08-30T11:04:17;3.20;;;3.00;;
25129;SDS011;13308;50.860;13.664;2023-08-30T11:06:46;2.00;;;1.88;;
25129;SDS011;13308;50.860;13.664;2023-08-30T11:09:17;2.95;;;2.10;;
25129;SDS011;13308;50.860;13.664;2023-08-30T11:11:43;2.30;;;2.10;;
25129;SDS011;13308;50.860;13.664;2023-08-30T11:14:10;2.28;;;1.95;;
25129;SDS011;13308;50.860;13.664;2023-08-30T11:16:36;2.60;;;2.30;;
25129;SDS011;13308;50.860;13.664;2023-08-30T11:19:03;2.83;;;2.38;;
25129;SDS011;13308;50.860;13.664;2023-08-30T11:21:33;2.88;;;2.58;;
25129;SDS011;13308;50.860;13.664;2023-08-30T11:24:00;2.20;;;1.92;;
25129;SDS011;13308;50.860;13.664;2023-08-30T11:26:25;2.65;;;2.45;;
25129;SDS011;13308;50.860;13.664;2023-08-30T11:28:51;2.50;;;2.40;;
25129;SDS011;13308;50.860;13.664;2023-08-30T11:31:24;2.75;;;2.55;;
25129;SDS011;13308;50.860;13.664;2023-08-30T11:33:53;3.00;;;2.70;;
25129;SDS011;13308;50.860;13.664;2023-08-30T11:36:21;2.63;;;2.42;;
25129;SDS011;13308;50.860;13.664;2023-08-30T11:38:51;4.95;;;2.20;;
25129;SDS011;13308;50.860;13.664;2023-08-30T11:41:19;3.55;;;2.63;;
25129;SDS011;13308;50.860;13.664;2023-08-30T11:43:45;3.67;;;2.55;;
25129;SDS011;13308;50.860;13.664;2023-08-30T11:46:12;2.28;;;2.08;;
25129;SDS011;13308;50.860;13.664;2023-08-30T11:48:38;4.00;;;3.70;;
25129;SDS011;13308;50.860;13.664;2023-08-30T11:51:05;3.17;;;2.88;;
25129;SDS011;13308;50.860;13.664;2023-08-30T11:53:31;3.80;;;2.88;;
25129;SDS011;13308;50.860;13.664;2023-08-30T11:55:57;3.60;;;3.30;;
25129;SDS011;13308;50.860;13.664;2023-08-30T11:58:22;3.55;;;3.25;;
25129;SDS011;13308;50.860;13.664;2023-08-30T12:00:51;3.90;;;3.50;;
25129;SDS011;13308;50.860;13.664;2023-08-30T12:03:19;3.35;;;3.15;;
25129;SDS011;13308;50.860;13.664;2023-08-30T12:05:45;4.10;;;3.70;;
25129;SDS011;13308;50.860;13.664;2023-08-30T12:08:28;3.60;;;3.33;;
25129;SDS011;13308;50.860;13.664;2023-08-30T12:10:55;3.70;;;3.40;;
25129;SDS011;13308;50.860;13.664;2023-08-30T12:13:25;3.17;;;2.97;;
25129;SDS011;13308;50.860;13.664;2023-08-30T12:15:51;3.38;;;3.17;;
25129;SDS011;13308;50.860;13.664;2023-08-30T12:18:28;3.75;;;3.38;;
25129;SDS011;13308;50.860;13.664;2023-08-30T12:21:01;3.40;;;3.20;;
25129;SDS011;13308;50.860;13.664;2023-08-30T12:23:29;3.70;;;3.40;;
25129;SDS011;13308;50.860;13.664;2023-08-30T12:28:32;3.42;;;3.13;;
25129;SDS011;13308;50.860;13.664;2023-08-30T12:31:02;3.40;;;3.03;;
25129;SDS011;13308;50.860;13.664;2023-08-30T12:33:30;3.38;;;3.15;;
25129;SDS011;13308;50.860;13.664;2023-08-30T12:35:56;2.97;;;2.47;;
25129;SDS011;13308;50.860;13.664;2023-08-30T12:38:22;3.75;;;2.50;;
25129;SDS011;13308;50.860;13.664;2023-08-30T12:40:49;2.90;;;2.70;;
25129;SDS011;13308;50.860;13.664;2023-08-30T12:43:16;3.08;;;2.78;;
25129;SDS011;13308;50.860;13.664;2023-08-30T12:45:43;2.97;;;2.78;;
25129;SDS011;13308;50.860;13.664;2023-08-30T12:48:09;2.75;;;2.55;;
25129;SDS011;13308;50.860;13.664;2023-08-30T12:50:40;3.30;;;2.63;;
25129;SDS011;13308;50.860;13.664;2023-08-30T12:53:06;2.90;;;2.70;;
25129;SDS011;13308;50.860;13.664;2023-08-30T12:55:32;3.05;;;2.78;;
25129;SDS011;13308;50.860;13.664;2023-08-30T12:57:59;4.45;;;2.70;;
25129;SDS011;13308;50.860;13.664;2023-08-30T13:00:25;2.70;;;2.50;;
25129;SDS011;13308;50.860;13.664;2023-08-30T13:02:50;2.80;;;2.40;;
25129;SDS011;13308;50.860;13.664;2023-08-30T13:05:16;3.33;;;2.67;;
25129;SDS011;13308;50.860;13.664;2023-08-30T13:07:42;2.60;;;2.40;;
25129;SDS011;13308;50.860;13.664;2023-08-30T13:10:08;2.90;;;2.70;;
25129;SDS011;13308;50.860;13.664;2023-08-30T13:12:33;2.83;;;2.63;;
25129;SDS011;13308;50.860;13.664;2023-08-30T13:14:59;5.53;;;3.08;;
25129;SDS011;13308;50.860;13.664;2023-08-30T13:17:25;3.03;;;2.72;;
25129;SDS011;13308;50.860;13.664;2023-08-30T13:19:50;2.10;;;2.00;;
25129;SDS011;13308;50.860;13.664;2023-08-30T13:22:16;3.13;;;2.83;;
25129;SDS011;13308;50.860;13.664;2023-08-30T13:24:41;2.50;;;2.30;;
25129;SDS011;13308;50.860;13.664;2023-08-30T13:27:07;2.58;;;2.38;;
25129;SDS011;13308;50.860;13.664;2023-08-30T13:29:32;2.95;;;2.75;;
25129;SDS011;13308;50.860;13.664;2023-08-30T13:31:57;3.95;;;2.85;;
25129;SDS011;13308;50.860;13.664;2023-08-30T13:34:23;2.85;;;2.65;;
25129;SDS011;13308;50.860;13.664;2023-08-30T13:36:48;3.13;;;2.83;;
25129;SDS011;13308;50.860;13.664;2023-08-30T13:39:13;3.75;;;2.90;;
25129;SDS011;13308;50.860;13.664;2023-08-30T13:41:39;2.97;;;2.78;;
25129;SDS011;13308;50.860;13.664;2023-08-30T13:44:05;2.53;;;2.33;;
25129;SDS011;13308;50.860;13.664;2023-08-30T13:46:31;2.55;;;2.35;;
25129;SDS011;13308;50.860;13.664;2023-08-30T13:48:57;2.95;;;2.70;;
25129;SDS011;13308;50.860;13.664;2023-08-30T13:51:23;2.20;;;2.10;;
25129;SDS011;13308;50.860;13.664;2023-08-30T13:53:52;2.28;;;2.08;;
25129;SDS011;13308;50.860;13.664;2023-08-30T13:56:18;2.20;;;2.00;;
25129;SDS011;13308;50.860;13.664;2023-08-30T13:58:44;3.20;;;2.50;;
25129;SDS011;13308;50.860;13.664;2023-08-30T14:01:10;2.50;;;2.30;;
25129;SDS011;13308;50.860;13.664;2023-08-30T14:03:36;2.47;;;2.30;;
25129;SDS011;13308;50.860;13.664;2023-08-30T14:06:01;2.05;;;1.90;;
25129;SDS011;13308;50.860;13.664;2023-08-30T14:08:26;2.45;;;2.25;;
25129;SDS011;13308;50.860;13.664;2023-08-30T14:10:52;2.63;;;2.30;;
25129;SDS011;13308;50.860;13.664;2023-08-30T14:13:17;2.15;;;2.05;;
25129;SDS011;13308;50.860;13.664;2023-08-30T14:15:43;2.67;;;1.77;;
25129;SDS011;13308;50.860;13.664;2023-08-30T14:18:08;2.60;;;2.40;;
25129;SDS011;13308;50.860;13.664;2023-08-30T14:20:34;2.85;;;2.47;;
25129;SDS011;13308;50.860;13.664;2023-08-30T14:22:59;2.47;;;2.28;;
25129;SDS011;13308;50.860;13.664;2023-08-30T14:25:25;3.80;;;3.00;;
25129;SDS011;13308;50.860;13.664;2023-08-30T14:27:50;2.67;;;2.47;;
25129;SDS011;13308;50.860;13.664;2023-08-30T14:30:15;2.72;;;2.53;;
25129;SDS011;13308;50.860;13.664;2023-08-30T14:32:41;2.25;;;2.05;;
25129;SDS011;13308;50.860;13.664;2023-08-30T14:35:06;3.60;;;3.30;;
25129;SDS011;13308;50.860;13.664;2023-08-30T14:37:32;3.30;;;3.08;;
25129;SDS011;13308;50.860;13.664;2023-08-30T14:40:01;23.92;;;18.15;;
25129;SDS011;13308;50.860;13.664;2023-08-30T14:42:28;4.03;;;3.72;;
25129;SDS011;13308;50.860;13.664;2023-08-30T14:44:53;3.70;;;3.40;;
25129;SDS011;13308;50.860;13.664;2023-08-30T14:47:19;3.20;;;2.95;;
25129;SDS011;13308;50.860;13.664;2023-08-30T14:49:46;3.22;;;3.00;;
25129;SDS011;13308;50.860;13.664;2023-08-30T14:52:12;4.13;;;2.90;;
25129;SDS011;13308;50.860;13.664;2023-08-30T14:54:38;11.10;;;7.45;;
25129;SDS011;13308;50.860;13.664;2023-08-30T14:57:03;36.45;;;26.27;;
25129;SDS011;13308;50.860;13.664;2023-08-30T14:59:28;70.22;;;48.03;;
25129;SDS011;13308;50.860;13.664;2023-08-30T15:01:54;31.33;;;23.67;;
25129;SDS011;13308;50.860;13.664;2023-08-30T15:04:20;7.40;;;5.85;;
25129;SDS011;13308;50.860;13.664;2023-08-30T15:06:46;3.53;;;3.15;;
25129;SDS011;13308;50.860;13.664;2023-08-30T15:09:11;3.05;;;2.50;;
25129;SDS011;13308;50.860;13.664;2023-08-30T15:11:37;3.38;;;3.17;;
25129;SDS011;13308;50.860;13.664;2023-08-30T15:14:02;10.98;;;9.07;;
25129;SDS011;13308;50.860;13.664;2023-08-30T15:16:28;13.75;;;11.50;;
25129;SDS011;13308;50.860;13.664;2023-08-30T15:18:53;9.23;;;8.32;;
25129;SDS011;13308;50.860;13.664;2023-08-30T15:21:18;3.28;;;3.08;;
25129;SDS011;13308;50.860;13.664;2023-08-30T15:23:44;2.88;;;2.67;;
25129;SDS011;13308;50.860;13.664;2023-08-30T15:26:09;4.32;;;3.92;;
25129;SDS011;13308;50.860;13.664;2023-08-30T15:28:41;3.38;;;3.08;;
25129;SDS011;13308;50.860;13.664;2023-08-30T15:31:08;9.43;;;7.38;;
25129;SDS011;13308;50.860;13.664;2023-08-30T15:33:33;6.47;;;5.90;;
25129;SDS011;13308;50.860;13.664;2023-08-30T15:35:59;8.38;;;7.60;;
25129;SDS011;13308;50.860;13.664;2023-08-30T15:38:25;5.10;;;4.65;;
25129;SDS011;13308;50.860;13.664;2023-08-30T15:40:52;18.88;;;13.90;;
25129;SDS011;13308;50.860;13.664;2023-08-30T15:43:19;15.25;;;13.25;;
25129;SDS011;13308;50.860;13.664;2023-08-30T15:45:44;7.70;;;5.93;;
25129;SDS011;13308;50.860;13.664;2023-08-30T15:48:10;6.97;;;6.28;;
25129;SDS011;13308;50.860;13.664;2023-08-30T15:50:36;2.85;;;2.65;;
25129;SDS011;13308;50.860;13.664;2023-08-30T15:53:01;4.88;;;4.38;;
25129;SDS011;13308;50.860;13.664;2023-08-30T15:55:27;5.97;;;5.38;;
25129;SDS011;13308;50.860;13.664;2023-08-30T15:57:54;11.80;;;9.70;;
25129;SDS011;13308;50.860;13.664;2023-08-30T16:00:19;4.75;;;4.35;;
25129;SDS011;13308;50.860;13.664;2023-08-30T16:02:45;5.22;;;4.28;;
25129;SDS011;13308;50.860;13.664;2023-08-30T16:05:10;46.80;;;27.35;;
25129;SDS011;13308;50.860;13.664;2023-08-30T16:07:36;19.58;;;13.30;;
25129;SDS011;13308;50.860;13.664;2023-08-30T16:10:02;9.63;;;7.97;;
25129;SDS011;13308;50.860;13.664;2023-08-30T16:12:27;4.38;;;3.15;;
25129;SDS011;13308;50.860;13.664;2023-08-30T16:14:53;7.18;;;6.35;;
25129;SDS011;13308;50.860;13.664;2023-08-30T16:17:18;3.17;;;2.70;;
25129;SDS011;13308;50.860;13.664;2023-08-30T16:19:43;3.35;;;3.08;;
25129;SDS011;13308;50.860;13.664;2023-08-30T16:22:09;5.15;;;2.92;;
25129;SDS011;13308;50.860;13.664;2023-08-30T16:24:34;7.43;;;4.68;;
25129;SDS011;13308;50.860;13.664;2023-08-30T16:26:59;4.05;;;3.42;;
25129;SDS011;13308;50.860;13.664;2023-08-30T16:29:25;2.97;;;2.78;;
25129;SDS011;13308;50.860;13.664;2023-08-30T16:31:51;2.72;;;2.53;;
25129;SDS011;13308;50.860;13.664;2023-08-30T16:34:17;3.30;;;3.00;;
25129;SDS011;13308;50.860;13.664;2023-08-30T16:36:44;3.53;;;3.22;;
25129;SDS011;13308;50.860;13.664;2023-08-30T16:39:10;2.85;;;2.60;;
25129;SDS011;13308;50.860;13.664;2023-08-30T16:41:35;3.72;;;3.33;;
25129;SDS011;13308;50.860;13.664;2023-08-30T16:44:01;5.78;;;3.15;;
25129;SDS011;13308;50.860;13.664;2023-08-30T16:46:26;3.17;;;2.92;;
25129;SDS011;13308;50.860;13.664;2023-08-30T16:48:51;5.38;;;3.30;;
25129;SDS011;13308;50.860;13.664;2023-08-30T16:51:17;3.40;;;3.10;;
25129;SDS011;13308;50.860;13.664;2023-08-30T16:53:42;3.63;;;3.28;;
25129;SDS011;13308;50.860;13.664;2023-08-30T16:56:07;3.53;;;3.22;;
25129;SDS011;13308;50.860;13.664;2023-08-30T16:58:33;3.30;;;3.00;;
25129;SDS011;13308;50.860;13.664;2023-08-30T17:00:58;3.22;;;2.92;;
25129;SDS011;13308;50.860;13.664;2023-08-30T17:03:23;3.10;;;2.90;;
25129;SDS011;13308;50.860;13.664;2023-08-30T17:05:49;3.15;;;2.78;;
25129;SDS011;13308;50.860;13.664;2023-08-30T17:08:14;3.08;;;2.78;;
25129;SDS011;13308;50.860;13.664;2023-08-30T17:10:39;3.85;;;2.90;;
25129;SDS011;13308;50.860;13.664;2023-08-30T17:13:05;3.45;;;3.15;;
25129;SDS011;13308;50.860;13.664;2023-08-30T17:15:30;3.70;;;3.40;;
25129;SDS011;13308;50.860;13.664;2023-08-30T17:17:55;4.47;;;3.83;;
25129;SDS011;13308;50.860;13.664;2023-08-30T17:20:21;3.90;;;3.60;;
25129;SDS011;13308;50.860;13.664;2023-08-30T17:22:46;4.00;;;3.70;;
25129;SDS011;13308;50.860;13.664;2023-08-30T17:25:12;4.55;;;4.15;;
25129;SDS011;13308;50.860;13.664;2023-08-30T17:27:37;4.32;;;4.03;;
25129;SDS011;13308;50.860;13.664;2023-08-30T17:30:05;3.97;;;3.67;;
25129;SDS011;13308;50.860;13.664;2023-08-30T17:32:31;4.95;;;3.90;;
25129;SDS011;13308;50.860;13.664;2023-08-30T17:34:57;3.58;;;3.28;;
25129;SDS011;13308;50.860;13.664;2023-08-30T17:37:22;3.33;;;3.13;;
25129;SDS011;13308;50.860;13.664;2023-08-30T17:39:47;3.42;;;3.15;;
25129;SDS011;13308;50.860;13.664;2023-08-30T17:42:13;5.22;;;3.53;;
25129;SDS011;13308;50.860;13.664;2023-08-30T17:44:38;4.65;;;2.88;;
25129;SDS011;13308;50.860;13.664;2023-08-30T17:47:05;3.63;;;3.33;;
25129;SDS011;13308;50.860;13.664;2023-08-30T17:49:30;3.28;;;2.92;;
25129;SDS011;13308;50.860;13.664;2023-08-30T17:51:55;3.47;;;3.28;;
25129;SDS011;13308;50.860;13.664;2023-08-30T17:54:21;3.55;;;3.25;;
25129;SDS011;13308;50.860;13.664;2023-08-30T17:56:46;3.20;;;2.97;;
25129;SDS011;13308;50.860;13.664;2023-08-30T17:59:12;3.33;;;3.05;;
25129;SDS011;13308;50.860;13.664;2023-08-30T18:01:37;3.75;;;3.45;;
25129;SDS011;13308;50.860;13.664;2023-08-30T18:04:03;3.67;;;3.38;;
25129;SDS011;13308;50.860;13.664;2023-08-30T18:06:29;2.90;;;2.70;;
25129;SDS011;13308;50.860;13.664;2023-08-30T18:08:55;6.30;;;3.20;;
25129;SDS011;13308;50.860;13.664;2023-08-30T18:11:21;4.68;;;4.28;;
25129;SDS011;13308;50.860;13.664;2023-08-30T18:13:47;5.38;;;4.97;;
25129;SDS011;13308;50.860;13.664;2023-08-30T18:16:14;4.45;;;3.88;;
25129;SDS011;13308;50.860;13.664;2023-08-30T18:18:42;4.00;;;3.70;;
25129;SDS011;13308;50.860;13.664;2023-08-30T18:21:09;3.70;;;3.40;;
